Terminal Aerodrome Forecast
Issued by NWS New Orleans/Baton Rouge, LA

Home | Current Version | Previous Version | Text Only | Print | Product List | Glossary On
Versions: 1 2 3 4 5 6 7 8 9 10 11 12 13 14 15 16
000
FTUS44 KLIX 191747
TAFNEW
TAF
KNEW 191747Z 1918/2018 19018KT P6SM FEW021 SCT035 BKN100
     FM192100 19012KT P6SM VCTS OVC040CB
     FM200100 21009KT P6SM BKN035
      TEMPO 2001/2003 4SM TSRA OVC025CB
     FM200600 21007KT 5SM BR BKN015
     FM201000 24006KT 1/2SM FG BKN003
     FM201700 24006KT P6SM BKN020=

USA.gov is the U.S. government's official web portal to all federal, state and local government web resources and services.